Time;durP1;ratioP1;P1;durP2;ratioP2;P2;SDS_P1;SDS_P2;PMS_P1;PMS_P2;Temp;Humidity;BMP_temperature;BMP_pressure;BME280_temperature;BME280_humidity;BME280_pressure;Samples;Min_cycle;Max_cycle;Signal;HPM_P1;HPM_P2
2022/09/03 00:01:02;;;;;;;;;;;;;;;20.19;37.19;100933.41;5112992;28;20010;-56
2022/09/03 00:03:33;;;;;;;;;;;;;;;20.10;37.32;100924.38;5112965;28;19911;-56
2022/09/03 00:06:16;;;;;;;;;;;;;;;20.04;37.53;100933.09;5113775;28;19992;-56
2022/09/03 00:08:41;;;;;;;;;;;;;;;19.98;38.93;100928.34;5116920;28;20000;-56
2022/09/03 00:11:13;;;;;;;;;;;;;;;19.93;38.01;100923.38;5117344;28;19973;-56
2022/09/03 00:13:42;;;;;;;;;;;;;;;19.90;37.87;100928.25;5116637;28;19959;-56
2022/09/03 00:16:10;;;;;;;;;;;;;;;19.83;37.13;100928.03;5117126;28;20002;-56
2022/09/03 00:18:38;;;;;;;;;;;;;;;19.83;36.88;100933.44;5115683;28;19908;-56
2022/09/03 00:21:07;;;;;;;;;;;;;;;19.79;39.91;100923.09;5117101;28;19908;-56
2022/09/03 00:23:37;;;;;;;;;;;;;;;19.70;38.98;100928.41;5115281;28;20000;-56
2022/09/03 00:26:11;;;;;;;;;;;;;;;19.64;38.49;100929.00;5115731;28;19908;-56
2022/09/03 00:28:55;;;;;;;;;;;;;;;19.63;38.04;100923.75;5115082;28;19908;-57
2022/09/03 00:31:26;;;;;;;;;;;;;;;19.62;39.80;100925.63;5116934;28;19907;-56
2022/09/03 00:33:57;;;;;;;;;;;;;;;19.63;38.95;100921.91;5115513;28;19926;-56
2022/09/03 00:36:43;;;;;;;;;;;;;;;19.60;39.54;100915.97;5115462;28;20041;-56
2022/09/03 00:39:09;;;;;;;;;;;;;;;19.55;39.36;100924.53;5114730;28;20782;-56
2022/09/03 00:41:37;;;;;;;;;;;;;;;19.58;39.12;100926.91;5116663;28;19931;-56
2022/09/03 00:44:21;;;;;;;;;;;;;;;19.58;39.57;100929.59;5114884;28;19930;-56
2022/09/03 00:47:12;;;;;;;;;;;;;;;19.60;39.39;100930.31;5116699;28;19931;-57
2022/09/03 00:49:47;;;;;;;;;;;;;;;19.63;39.49;100926.47;5114245;27;20289;-56
2022/09/03 00:52:12;;;;;;;;;;;;;;;19.57;40.54;100919.84;5114917;28;20342;-56
2022/09/03 00:54:39;;;;;;;;;;;;;;;19.56;39.38;100918.16;5116376;28;19911;-56
2022/09/03 00:57:10;;;;;;;;;;;;;;;19.53;39.46;100929.25;5116305;28;19912;-56
2022/09/03 01:00:00;;;;;;;;;;;;;;;19.51;40.12;100915.88;5115637;28;19926;-56
2022/09/03 01:02:28;;;;;;;;;;;;;;;19.50;39.43;100924.13;5116330;28;19918;-57
2022/09/03 01:05:24;;;;;;;;;;;;;;;19.47;39.72;100919.03;5116189;28;19908;-56
2022/09/03 01:08:31;;;;;;;;;;;;;;;19.43;39.77;100920.34;5101566;28;19907;-56
2022/09/03 01:11:09;;;;;;;;;;;;;;;19.37;39.78;100920.97;5073247;28;19948;-56
2022/09/03 01:13:43;;;;;;;;;;;;;;;19.37;39.58;100912.88;5072463;28;19912;-57
2022/09/03 01:16:17;;;;;;;;;;;;;;;19.35;39.58;100913.00;5100276;28;20309;-56
2022/09/03 01:18:48;;;;;;;;;;;;;;;19.35;39.81;100906.78;5114837;28;19908;-56
2022/09/03 01:21:22;;;;;;;;;;;;;;;19.38;39.71;100903.78;5115926;28;19908;-56
2022/09/03 01:24:07;;;;;;;;;;;;;;;19.41;40.31;100919.66;5115897;28;20274;-56
2022/09/03 01:26:42;;;;;;;;;;;;;;;19.37;39.87;100916.41;5115830;28;20434;-56
2022/09/03 01:29:27;;;;;;;;;;;;;;;19.37;39.83;100918.28;5115195;28;20007;-56
2022/09/03 01:32:18;;;;;;;;;;;;;;;19.36;39.67;100919.28;5131798;27;20007;-56
2022/09/03 01:34:47;;;;;;;;;;;;;;;19.33;39.83;100919.59;5113381;27;19907;-56
2022/09/03 01:37:22;;;;;;;;;;;;;;;19.29;39.72;100913.63;5115644;28;19995;-56
2022/09/03 01:39:50;;;;;;;;;;;;;;;19.23;39.91;100911.53;5114270;28;19962;-56
2022/09/03 01:42:15;;;;;;;;;;;;;;;19.18;41.18;100911.16;5115810;28;19953;-56
2022/09/03 01:44:44;;;;;;;;;;;;;;;19.13;40.71;100910.75;5114983;28;20331;-56
2022/09/03 01:47:15;;;;;;;;;;;;;;;19.12;40.45;100914.44;5114236;28;19987;-56
2022/09/03 01:49:47;;;;;;;;;;;;;;;19.09;40.72;100910.22;5115103;28;19911;-56
2022/09/03 01:52:16;;;;;;;;;;;;;;;19.03;40.79;100908.09;5113919;28;19911;-56
2022/09/03 01:54:53;;;;;;;;;;;;;;;19.04;40.34;100910.66;5115181;28;19907;-56
2022/09/03 01:57:27;;;;;;;;;;;;;;;19.10;39.52;100919.16;5115292;28;19957;-57
2022/09/03 02:00:03;;;;;;;;;;;;;;;19.10;39.94;100916.44;5114477;28;20027;-56
2022/09/03 02:02:29;;;;;;;;;;;;;;;19.03;39.80;100925.16;5115042;28;19908;-56
2022/09/03 02:05:06;;;;;;;;;;;;;;;18.88;41.75;100926.63;5113474;28;19962;-56
2022/09/03 02:07:33;;;;;;;;;;;;;;;18.78;41.12;100923.97;5114944;28;19915;-56
2022/09/03 02:09:59;;;;;;;;;;;;;;;18.80;41.06;100913.91;5113578;28;19979;-56
2022/09/03 02:12:25;;;;;;;;;;;;;;;18.82;40.52;100914.59;5113698;28;19912;-56
2022/09/03 02:14:50;;;;;;;;;;;;;;;18.87;41.13;100911.44;5114404;28;20377;-56
2022/09/03 02:17:15;;;;;;;;;;;;;;;18.84;41.50;100909.91;5113678;28;20376;-56
2022/09/03 02:19:41;;;;;;;;;;;;;;;18.80;40.76;100913.91;5114472;28;19911;-56
2022/09/03 02:22:06;;;;;;;;;;;;;;;18.80;40.93;100913.91;5114857;28;19907;-56
2022/09/03 02:24:32;;;;;;;;;;;;;;;18.80;41.24;100911.22;5114601;28;19915;-56
2022/09/03 02:26:57;;;;;;;;;;;;;;;18.79;41.07;100912.19;5113334;28;19916;-56
2022/09/03 02:29:23;;;;;;;;;;;;;;;18.79;41.09;100912.19;5114005;28;19908;-56
2022/09/03 02:31:48;;;;;;;;;;;;;;;18.80;40.26;100905.81;5113069;28;20294;-56
2022/09/03 02:34:13;;;;;;;;;;;;;;;18.82;40.77;100916.44;5113134;28;19930;-56
2022/09/03 02:36:41;;;;;;;;;;;;;;;18.79;40.68;100912.19;5113218;28;19911;-56
2022/09/03 02:39:07;;;;;;;;;;;;;;;18.79;39.68;100919.44;5113011;28;19907;-56
2022/09/03 02:41:32;;;;;;;;;;;;;;;18.73;40.65;100910.09;5114420;28;19934;-56
2022/09/03 02:44:13;;;;;;;;;;;;;;;18.69;41.03;100908.66;5112458;28;19907;-56
2022/09/03 02:46:40;;;;;;;;;;;;;;;18.70;40.89;100901.41;5112939;28;19918;-56
2022/09/03 02:49:05;;;;;;;;;;;;;;;18.67;41.13;100904.41;5113819;28;20374;-56
2022/09/03 02:51:31;;;;;;;;;;;;;;;18.64;40.93;100904.72;5112723;28;19939;-57
2022/09/03 02:53:57;;;;;;;;;;;;;;;18.64;40.35;100915.50;5113407;28;19958;-56
2022/09/03 02:56:26;;;;;;;;;;;;;;;18.61;41.18;100909.38;5114077;28;19958;-56
2022/09/03 02:58:52;;;;;;;;;;;;;;;18.57;41.13;100913.38;5112017;28;20329;-56
2022/09/03 03:01:17;;;;;;;;;;;;;;;18.58;41.71;100908.84;5114000;28;19915;-56
2022/09/03 03:03:42;;;;;;;;;;;;;;;18.56;40.89;100909.00;5113665;28;19908;-56
2022/09/03 03:06:08;;;;;;;;;;;;;;;18.59;40.86;100915.94;5112588;28;19916;-56
2022/09/03 03:08:34;;;;;;;;;;;;;;;18.56;41.21;100916.22;5113788;28;19931;-56
2022/09/03 03:10:59;;;;;;;;;;;;;;;18.52;41.61;100912.13;5112441;28;19949;-57
2022/09/03 03:13:27;;;;;;;;;;;;;;;18.49;41.49;100917.81;5111767;28;19911;-56
2022/09/03 03:16:05;;;;;;;;;;;;;;;18.50;41.82;100912.28;5113626;28;19912;-57
2022/09/03 03:18:30;;;;;;;;;;;;;;;18.52;41.47;100920.22;5112222;28;19956;-56
2022/09/03 03:20:55;;;;;;;;;;;;;;;18.51;41.36;100911.28;5112259;28;19908;-56
2022/09/03 03:23:21;;;;;;;;;;;;;;;18.52;41.29;100912.13;5113531;28;19908;-56
2022/09/03 03:25:46;;;;;;;;;;;;;;;18.51;41.50;100907.75;5113674;28;20010;-56
2022/09/03 03:28:14;;;;;;;;;;;;;;;18.49;41.38;100907.03;5112945;28;19911;-56
2022/09/03 03:30:41;;;;;;;;;;;;;;;18.46;41.85;100916.25;5113185;28;19930;-57
2022/09/03 03:33:08;;;;;;;;;;;;;;;18.38;41.35;100908.03;5113270;28;20497;-56
2022/09/03 03:35:34;;;;;;;;;;;;;;;18.36;41.67;100905.50;5113488;28;19953;-56
2022/09/03 03:38:01;;;;;;;;;;;;;;;18.37;41.24;100912.59;5113236;28;19907;-56
2022/09/03 03:40:27;;;;;;;;;;;;;;;18.39;41.43;100910.59;5113261;28;19999;-56
2022/09/03 03:42:53;;;;;;;;;;;;;;;18.38;42.10;100908.91;5128425;27;20463;-56
2022/09/03 03:45:18;;;;;;;;;;;;;;;18.35;41.68;100911.03;5111710;28;19961;-57
2022/09/03 03:47:44;;;;;;;;;;;;;;;18.31;41.61;100913.19;5113366;28;19907;-56
2022/09/03 03:50:09;;;;;;;;;;;;;;;18.29;41.82;100904.38;5113144;28;19918;-56
2022/09/03 03:52:37;;;;;;;;;;;;;;;18.23;41.81;100904.13;5111909;28;19912;-56
2022/09/03 03:55:05;;;;;;;;;;;;;;;18.19;42.45;100917.03;5113026;28;19907;-56
2022/09/03 03:57:31;;;;;;;;;;;;;;;18.11;42.14;100916.91;5113237;28;19920;-56
2022/09/03 03:59:56;;;;;;;;;;;;;;;18.07;42.33;100910.13;5112066;28;19923;-56
2022/09/03 04:02:21;;;;;;;;;;;;;;;18.05;42.89;100910.25;5113118;28;20296;-56
2022/09/03 04:04:49;;;;;;;;;;;;;;;18.04;42.31;100910.41;5113130;28;20339;-56
2022/09/03 04:07:14;;;;;;;;;;;;;;;18.05;42.12;100918.31;5111799;28;20286;-56
2022/09/03 04:09:39;;;;;;;;;;;;;;;18.05;42.47;100912.09;5112755;28;19911;-56
2022/09/03 04:12:07;;;;;;;;;;;;;;;18.04;42.21;100913.09;5111683;28;19915;-56
2022/09/03 04:14:33;;;;;;;;;;;;;;;18.00;42.33;100915.22;5112223;28;19908;-56
2022/09/03 04:16:58;;;;;;;;;;;;;;;18.01;42.13;100899.91;5111655;28;19930;-56
2022/09/03 04:19:24;;;;;;;;;;;;;;;17.98;42.48;100909.13;5112858;28;19914;-56
2022/09/03 04:21:49;;;;;;;;;;;;;;;17.95;42.50;100904.03;5112820;28;19915;-56
2022/09/03 04:24:14;;;;;;;;;;;;;;;17.96;42.99;100907.56;5112778;28;19907;-56
2022/09/03 04:26:39;;;;;;;;;;;;;;;17.93;42.97;100900.63;5112841;28;19933;-56
2022/09/03 04:29:06;;;;;;;;;;;;;;;17.90;43.13;100904.44;5112117;28;19957;-56
2022/09/03 04:31:32;;;;;;;;;;;;;;;17.92;43.36;100904.31;5112851;28;20278;-56
2022/09/03 04:33:57;;;;;;;;;;;;;;;17.86;43.50;100908.44;5112518;28;19956;-56
2022/09/03 04:36:24;;;;;;;;;;;;;;;17.81;43.25;100899.94;5111592;28;20358;-56
2022/09/03 04:38:52;;;;;;;;;;;;;;;17.81;42.91;100904.47;5111212;28;20005;-56
2022/09/03 04:41:18;;;;;;;;;;;;;;;17.78;43.26;100900.22;5111606;28;19914;-57
2022/09/03 04:43:44;;;;;;;;;;;;;;;17.76;43.21;100904.84;5112047;28;20369;-56
2022/09/03 04:46:10;;;;;;;;;;;;;;;17.71;43.36;100904.44;5112692;28;19995;-56
2022/09/03 04:48:36;;;;;;;;;;;;;;;17.71;43.54;100896.38;5145706;27;20015;-56
2022/09/03 04:51:05;;;;;;;;;;;;;;;17.70;42.93;100908.09;5112604;28;19947;-56
2022/09/03 04:53:34;;;;;;;;;;;;;;;17.70;43.48;100908.09;5112190;28;19912;-56
2022/09/03 04:55:59;;;;;;;;;;;;;;;17.70;43.06;100903.56;5114921;28;19954;-56
2022/09/03 04:58:25;;;;;;;;;;;;;;;17.71;43.63;100904.44;5115634;28;19962;-56
2022/09/03 05:00:51;;;;;;;;;;;;;;;17.71;43.86;100909.81;5116081;28;20342;-56
2022/09/03 05:03:16;;;;;;;;;;;;;;;17.70;43.53;100910.78;5116346;28;19908;-56
2022/09/03 05:05:41;;;;;;;;;;;;;;;17.70;43.15;100908.94;5114945;28;19908;-56
2022/09/03 05:08:10;;;;;;;;;;;;;;;17.71;43.16;100909.81;5115997;28;20367;-56
2022/09/03 05:10:35;;;;;;;;;;;;;;;17.69;43.07;100906.41;5116090;28;19926;-56
2022/09/03 05:13:01;;;;;;;;;;;;;;;17.71;43.59;100909.81;5115220;28;20278;-56
2022/09/03 05:15:27;;;;;;;;;;;;;;;17.74;43.74;100904.16;5116149;28;19907;-56
2022/09/03 05:17:56;;;;;;;;;;;;;;;17.76;43.52;100912.91;5115850;28;19914;-56
2022/09/03 05:20:22;;;;;;;;;;;;;;;17.76;43.19;100904.84;5115932;28;20374;-56
2022/09/03 05:22:47;;;;;;;;;;;;;;;17.79;43.35;100903.75;5115722;28;19961;-56
2022/09/03 05:25:12;;;;;;;;;;;;;;;17.78;43.32;100902.06;5114445;28;19919;-56
2022/09/03 05:27:37;;;;;;;;;;;;;;;17.80;42.82;100905.47;5115516;28;19911;-56
2022/09/03 05:30:03;;;;;;;;;;;;;;;17.80;42.84;100910.84;5113828;28;19915;-57
2022/09/03 05:32:29;;;;;;;;;;;;;;;17.77;43.74;100906.56;5115649;28;19918;-56
2022/09/03 05:34:55;;;;;;;;;;;;;;;17.76;43.59;100904.00;5114201;28;19908;-56
2022/09/03 05:37:22;;;;;;;;;;;;;;;17.75;43.85;100896.94;5115528;28;19930;-56
2022/09/03 05:39:47;;;;;;;;;;;;;;;17.75;43.60;100908.53;5115587;28;19907;-56
2022/09/03 05:42:13;;;;;;;;;;;;;;;17.73;44.07;100905.13;5115728;28;19953;-56
2022/09/03 05:44:39;;;;;;;;;;;;;;;17.73;44.18;100906.97;5113775;28;20279;-56
2022/09/03 05:47:04;;;;;;;;;;;;;;;17.74;44.29;100906.84;5114188;28;19929;-56
2022/09/03 05:49:30;;;;;;;;;;;;;;;17.78;44.21;100905.59;5115264;28;19919;-56
2022/09/03 05:51:56;;;;;;;;;;;;;;;17.80;44.24;100906.31;5113733;28;20445;-56
2022/09/03 05:54:24;;;;;;;;;;;;;;;17.84;43.94;100909.56;5113856;28;19955;-56
2022/09/03 05:56:49;;;;;;;;;;;;;;;17.87;43.66;100915.50;5114940;28;20378;-56
2022/09/03 05:59:14;;;;;;;;;;;;;;;17.90;44.10;100911.69;5113331;28;19995;-56
2022/09/03 06:01:41;;;;;;;;;;;;;;;17.92;44.35;100910.56;5115089;28;19934;-56
2022/09/03 06:04:08;;;;;;;;;;;;;;;17.81;43.90;100888.31;5114587;28;19998;-56
2022/09/03 06:06:35;;;;;;;;;;;;;;;17.99;44.11;100902.75;5115414;28;19908;-56
2022/09/03 06:09:02;;;;;;;;;;;;;;;18.00;43.58;100908.97;5114808;28;19911;-56
2022/09/03 06:11:28;;;;;;;;;;;;;;;18.05;44.60;100906.72;5114707;28;19995;-56
2022/09/03 06:13:55;;;;;;;;;;;;;;;18.08;43.82;100909.09;5114244;28;20290;-56
2022/09/03 06:16:21;;;;;;;;;;;;;;;18.08;44.46;100907.25;5113628;28;20297;-56
2022/09/03 06:18:46;;;;;;;;;;;;;;;18.09;44.84;100914.38;5114785;28;19915;-56
2022/09/03 06:21:13;;;;;;;;;;;;;;;18.10;44.34;100912.50;5114574;28;19907;-56
2022/09/03 06:23:39;;;;;;;;;;;;;;;18.14;44.40;100911.22;5114467;28;20350;-56
2022/09/03 06:26:08;;;;;;;;;;;;;;;18.15;44.39;100910.25;5114376;28;19958;-56
2022/09/03 06:28:34;;;;;;;;;;;;;;;18.20;44.17;100913.34;5112878;28;19930;-56
2022/09/03 06:31:01;;;;;;;;;;;;;;;18.26;44.19;100912.75;5114443;28;20340;-56
2022/09/03 06:33:29;;;;;;;;;;;;;;;18.32;44.41;100914.03;5114287;28;19920;-56
2022/09/03 06:35:58;;;;;;;;;;;;;;;18.33;44.25;100915.72;5114652;28;19994;-56
2022/09/03 06:38:27;;;;;;;;;;;;;;;18.35;44.66;100916.41;5114271;28;20002;-56
2022/09/03 06:40:57;;;;;;;;;;;;;;;18.36;44.31;100912.75;5114084;28;19959;-56
2022/09/03 06:43:25;;;;;;;;;;;;;;;18.38;44.78;100917.00;5113737;28;19915;-56
2022/09/03 06:45:58;;;;;;;;;;;;;;;18.45;44.51;100914.56;5113004;28;19950;-56
2022/09/03 06:48:23;;;;;;;;;;;;;;;18.53;44.55;100916.50;5114210;28;20255;-56
2022/09/03 06:50:52;;;;;;;;;;;;;;;18.57;45.17;100916.06;5114069;28;19915;-56
2022/09/03 06:53:18;;;;;;;;;;;;;;;18.58;44.78;100914.22;5112810;28;19912;-57
2022/09/03 06:55:44;;;;;;;;;;;;;;;18.60;44.50;100917.63;5112589;28;19912;-56
2022/09/03 06:58:09;;;;;;;;;;;;;;;18.67;44.66;100920.59;5113541;28;19916;-56
2022/09/03 07:00:34;;;;;;;;;;;;;;;18.70;44.09;100915.75;5113754;28;20002;-56
2022/09/03 07:03:01;;;;;;;;;;;;;;;18.77;44.25;100913.34;5113586;28;19912;-56
2022/09/03 07:05:27;;;;;;;;;;;;;;;18.90;44.61;100913.84;5113906;28;19952;-56
2022/09/03 07:07:53;;;;;;;;;;;;;;;19.00;44.38;100919.19;5112416;28;19912;-56
2022/09/03 07:10:19;;;;;;;;;;;;;;;19.10;44.32;100916.44;5113702;28;19960;-56
2022/09/03 07:12:45;;;;;;;;;;;;;;;19.20;44.08;100923.47;5113774;28;20006;-56
2022/09/03 07:15:11;;;;;;;;;;;;;;;19.25;43.82;100915.78;5113004;28;20333;-56
2022/09/03 07:17:36;;;;;;;;;;;;;;;19.25;43.88;100921.16;5146108;27;19912;-56
2022/09/03 07:20:02;;;;;;;;;;;;;;;19.28;44.35;100920.88;5113545;28;19912;-56
2022/09/03 07:22:27;;;;;;;;;;;;;;;19.35;44.22;100926.50;5112214;28;20267;-57
2022/09/03 07:24:52;;;;;;;;;;;;;;;19.40;43.89;100918.81;5113203;28;19907;-56
2022/09/03 07:27:17;;;;;;;;;;;;;;;19.48;43.62;100921.59;5113701;28;19911;-56
2022/09/03 07:29:42;;;;;;;;;;;;;;;19.55;43.52;100926.38;5111567;28;19914;-56
2022/09/03 07:32:08;;;;;;;;;;;;;;;19.51;43.95;100929.38;5113189;28;19920;-56
2022/09/03 07:34:34;;;;;;;;;;;;;;;19.49;43.46;100923.28;5113498;28;19949;-56
2022/09/03 07:36:59;;;;;;;;;;;;;;;19.40;43.27;100924.19;5112009;28;19918;-59
2022/09/03 07:39:25;;;;;;;;;;;;;;;19.27;43.73;100924.56;5113040;28;19912;-56
2022/09/03 07:41:50;;;;;;;;;;;;;;;19.28;44.25;100923.56;5113104;28;19915;-56
2022/09/03 07:44:18;;;;;;;;;;;;;;;19.43;43.89;100920.34;5112785;28;19914;-56
2022/09/03 07:46:46;;;;;;;;;;;;;;;19.61;44.02;100918.50;5113196;28;19957;-56
2022/09/03 07:49:12;;;;;;;;;;;;;;;19.78;43.55;100924.09;5113219;28;19908;-56
2022/09/03 07:51:38;;;;;;;;;;;;;;;19.87;42.97;100928.56;5111375;28;20334;-56
2022/09/03 07:54:05;;;;;;;;;;;;;;;20.02;43.17;100928.88;5111504;28;19935;-56
2022/09/03 07:56:31;;;;;;;;;;;;;;;20.14;43.38;100925.75;5113036;28;19912;-56
2022/09/03 07:58:56;;;;;;;;;;;;;;;20.30;42.99;100932.31;5112379;28;19912;-56
2022/09/03 08:01:23;;;;;;;;;;;;;;;20.41;42.80;100929.31;5111608;28;20328;-56
2022/09/03 08:03:49;;;;;;;;;;;;;;;20.55;42.53;100933.31;5111354;28;20255;-56
2022/09/03 08:06:17;;;;;;;;;;;;;;;20.66;42.37;100933.06;5112491;28;19916;-56
2022/09/03 08:08:45;;;;;;;;;;;;;;;20.82;41.95;100934.97;5111477;28;19995;-56
2022/09/03 08:11:12;;;;;;;;;;;;;;;20.90;41.86;100928.78;5112819;28;19953;-56
2022/09/03 08:13:39;;;;;;;;;;;;;;;21.01;42.16;100931.19;5112174;28;19912;-56
2022/09/03 08:16:04;;;;;;;;;;;;;;;21.18;41.69;100924.84;5112810;28;19937;-56
2022/09/03 08:18:36;;;;;;;;;;;;;;;21.35;40.92;100931.13;5112812;28;19934;-56
2022/09/03 08:21:02;;;;;;;;;;;;;;;21.51;40.48;100933.91;5112723;28;20426;-56
2022/09/03 08:23:27;;;;;;;;;;;;;;;21.74;40.33;100936.00;5112695;28;19981;-56
2022/09/03 08:25:59;;;;;;;;;;;;;;;21.95;40.05;100938.22;5112685;28;19908;-56
2022/09/03 08:28:24;;;;;;;;;;;;;;;22.11;39.38;100940.91;5114981;28;19908;-56
2022/09/03 08:30:50;;;;;;;;;;;;;;;22.19;39.67;100940.09;5116973;28;20263;-56
2022/09/03 08:33:15;;;;;;;;;;;;;;;22.31;39.22;100940.59;5116887;28;19919;-56
2022/09/03 08:35:40;;;;;;;;;;;;;;;22.49;38.99;100940.41;5116661;28;20361;-56
2022/09/03 08:38:11;;;;;;;;;;;;;;;22.71;38.33;100949.66;5116708;28;19994;-56
2022/09/03 08:40:36;;;;;;;;;;;;;;;22.88;38.39;100949.47;5116581;28;19933;-56
2022/09/03 08:43:08;;;;;;;;;;;;;;;23.05;38.00;100952.13;5114682;28;19916;-56
2022/09/03 08:45:36;;;;;;;;;;;;;;;23.19;37.75;100954.09;5116668;28;19951;-56
2022/09/03 08:48:08;;;;;;;;;;;;;;;23.25;37.76;100953.38;5116387;28;20419;-56
2022/09/03 08:50:37;;;;;;;;;;;;;;;23.42;37.47;100943.31;5116447;28;19907;-56
2022/09/03 08:53:26;;;;;;;;;;;;;;;23.61;37.11;100941.97;5116145;28;19924;-56
2022/09/03 08:55:53;;;;;;;;;;;;;;;23.78;37.18;100943.59;5106800;28;19926;-56
2022/09/03 08:58:20;;;;;;;;;;;;;;;23.87;36.54;100941.66;5115785;28;20002;-56
2022/09/03 09:01:02;;;;;;;;;;;;;;;23.97;37.19;100938.69;5116508;28;19919;-56
2022/09/03 09:03:30;;;;;;;;;;;;;;;24.19;35.66;100943.25;5116085;28;19908;-56
2022/09/03 09:05:57;;;;;;;;;;;;;;;24.28;36.48;100938.59;5115990;28;19908;-56
2022/09/03 09:08:33;;;;;;;;;;;;;;;24.40;35.24;100944.44;5116112;28;19907;-56
2022/09/03 09:11:00;;;;;;;;;;;;;;;24.48;35.29;100947.94;5114829;28;19923;-56
2022/09/03 09:13:30;;;;;;;;;;;;;;;24.55;35.80;100939.03;5115434;28;19957;-57
2022/09/03 09:15:58;;;;;;;;;;;;;;;24.68;35.77;100948.25;5116064;28;20065;-56
2022/09/03 09:18:36;;;;;;;;;;;;;;;24.87;35.00;100946.84;5115868;28;20388;-56
2022/09/03 09:21:08;;;;;;;;;;;;;;;25.09;34.79;100952.34;5115935;28;19907;-56
2022/09/03 09:23:43;;;;;;;;;;;;;;;25.16;34.44;100956.06;5148885;27;19911;-56
2022/09/03 09:26:14;;;;;;;;;;;;;;;25.21;33.98;100944.56;5115850;28;19919;-56
2022/09/03 09:28:41;;;;;;;;;;;;;;;25.26;34.82;100942.13;5115185;28;19953;-56
2022/09/03 09:31:08;;;;;;;;;;;;;;;25.48;34.31;100943.88;5115570;28;19908;-56
2022/09/03 09:33:34;;;;;;;;;;;;;;;25.73;33.92;100944.34;5115256;28;19916;-57
2022/09/03 09:36:08;;;;;;;;;;;;;;;25.89;33.52;100937.00;5115586;28;20018;-56
2022/09/03 09:38:37;;;;;;;;;;;;;;;26.05;33.08;100932.09;5115135;28;19908;-56
2022/09/03 09:41:09;;;;;;;;;;;;;;;26.20;32.95;100937.47;5114013;28;20018;-56
2022/09/03 09:43:37;;;;;;;;;;;;;;;26.33;32.57;100939.47;5114988;28;19914;-56
2022/09/03 09:46:08;;;;;;;;;;;;;;;26.50;32.23;100942.75;5115365;28;20002;-56
2022/09/03 09:48:39;;;;;;;;;;;;;;;26.60;32.87;100946.00;5113789;28;20280;-57
2022/09/03 09:51:12;;;;;;;;;;;;;;;26.59;33.12;100952.50;5115465;28;20014;-56
2022/09/03 09:53:41;;;;;;;;;;;;;;;26.61;32.30;100949.56;5113832;28;19912;-56
2022/09/03 09:56:19;;;;;;;;;;;;;;;26.65;31.68;100945.38;5113837;28;20412;-57
2022/09/03 09:58:44;;;;;;;;;;;;;;;26.75;31.13;100943.13;5113525;28;20378;-57
2022/09/03 10:01:21;;;;;;;;;;;;;;;26.85;31.54;100949.06;5114933;28;19967;-57
2022/09/03 10:03:48;;;;;;;;;;;;;;;26.90;31.11;100952.03;5114882;28;20369;-56
2022/09/03 10:09:06;;;;;;;;;;;;;;;27.10;32.13;100948.56;5115270;28;20365;-57
2022/09/03 10:11:33;;;;;;;;;;;;;;;27.20;30.13;100943.59;5113764;28;19950;-57
2022/09/03 10:14:00;;;;;;;;;;;;;;;27.27;30.87;100944.47;5112758;28;20397;-56
2022/09/03 10:16:33;;;;;;;;;;;;;;;27.43;30.79;100932.34;5114884;28;20384;-57
2022/09/03 10:19:14;;;;;;;;;;;;;;;27.61;31.14;100934.47;5113219;28;20359;-57
2022/09/03 10:21:44;;;;;;;;;;;;;;;27.79;30.27;100931.19;5114657;28;19912;-56
2022/09/03 10:24:32;;;;;;;;;;;;;;;27.89;30.94;100931.63;5114564;28;19930;-57
2022/09/03 10:27:00;;;;;;;;;;;;;;;27.81;29.97;100931.81;5114516;28;19907;-57
2022/09/03 10:29:28;;;;;;;;;;;;;;;27.76;30.07;100929.66;5112748;28;19908;-57
2022/09/03 10:32:11;;;;;;;;;;;;;;;27.84;29.55;100932.25;5114202;28;19994;-56
2022/09/03 10:34:41;;;;;;;;;;;;;;;27.70;29.88;100929.66;5114446;28;19911;-56
2022/09/03 10:37:21;;;;;;;;;;;;;;;27.73;29.76;100921.88;5113134;28;19908;-57
2022/09/03 10:40:10;;;;;;;;;;;;;;;27.90;29.47;100925.09;5113188;28;19908;-56
2022/09/03 10:42:36;;;;;;;;;;;;;;;28.03;30.06;100930.59;5113192;28;19915;-57
2022/09/03 10:45:10;;;;;;;;;;;;;;;28.33;29.00;100929.31;5113676;28;19907;-57
2022/09/03 10:47:45;;;;;;;;;;;;;;;28.56;28.82;100931.63;5112808;28;19914;-56
2022/09/03 10:50:22;;;;;;;;;;;;;;;28.78;28.52;100924.00;5112396;28;19916;-56
2022/09/03 10:52:48;;;;;;;;;;;;;;;28.99;28.64;100924.53;5112438;28;19918;-57
2022/09/03 10:55:14;;;;;;;;;;;;;;;29.19;28.84;100923.66;5114054;28;20285;-57
2022/09/03 10:57:58;;;;;;;;;;;;;;;29.26;27.96;100916.25;5112828;28;19911;-57
2022/09/03 11:00:27;;;;;;;;;;;;;;;29.39;27.51;100927.16;5113578;28;19919;-57
2022/09/03 11:02:55;;;;;;;;;;;;;;;29.44;28.34;100918.25;5113920;27;19908;-57
2022/09/03 11:05:26;;;;;;;;;;;;;;;29.51;27.55;100916.31;5113844;28;19907;-57
2022/09/03 11:07:57;;;;;;;;;;;;;;;29.60;27.69;100917.75;5113811;28;19908;-57
2022/09/03 11:10:26;;;;;;;;;;;;;;;29.63;26.70;100925.56;5113665;28;19907;-57
2022/09/03 11:13:03;;;;;;;;;;;;;;;29.72;27.16;100917.91;5112226;28;19911;-57
2022/09/03 11:15:28;;;;;;;;;;;;;;;30.07;27.56;100917.44;5113512;28;20277;-57
2022/09/03 11:17:57;;;;;;;;;;;;;;;30.18;26.65;100915.84;5113491;28;20007;-57
2022/09/03 11:20:24;;;;;;;;;;;;;;;30.22;26.83;100922.63;5146975;27;19908;-57
2022/09/03 11:22:52;;;;;;;;;;;;;;;30.61;27.10;100926.88;5113604;28;20010;-57
2022/09/03 11:25:20;;;;;;;;;;;;;;;31.19;27.91;100920.09;5112480;28;19908;-57
2022/09/03 11:27:55;;;;;;;;;;;;;;;31.50;25.27;100913.53;5113795;28;19947;-57
2022/09/03 11:30:28;;;;;;;;;;;;;;;31.83;25.77;100907.56;5111951;28;19907;-57
2022/09/03 11:33:05;;;;;;;;;;;;;;;32.41;24.80;100911.44;5111846;28;19918;-57
2022/09/03 11:35:30;;;;;;;;;;;;;;;33.07;25.34;100912.13;5112098;28;20433;-57
2022/09/03 11:38:03;;;;;;;;;;;;;;;33.33;23.65;100904.38;5111862;28;19907;-58
2022/09/03 11:40:33;;;;;;;;;;;;;;;33.55;24.02;100902.59;5112067;28;20373;-57
2022/09/03 11:43:05;;;;;;;;;;;;;;;34.06;22.22;100903.50;5112618;28;19908;-57
2022/09/03 11:45:30;;;;;;;;;;;;;;;34.57;21.52;100898.75;5113060;28;19911;-57
2022/09/03 11:47:56;;;;;;;;;;;;;;;35.08;22.01;100906.06;5111619;28;19907;-57
2022/09/03 11:50:24;;;;;;;;;;;;;;;35.79;21.32;100895.75;5113171;28;19912;-57
2022/09/03 11:52:52;;;;;;;;;;;;;;;36.44;19.42;100899.28;5113085;28;19912;-57
2022/09/03 11:55:24;;;;;;;;;;;;;;;36.58;22.53;100894.13;5113421;28;19919;-57
2022/09/03 11:57:49;;;;;;;;;;;;;;;37.05;20.25;100902.41;5113151;28;20002;-57
2022/09/03 12:00:20;;;;;;;;;;;;;;;37.17;21.10;100904.09;5112268;28;20007;-57
2022/09/03 12:02:51;;;;;;;;;;;;;;;37.73;18.41;100899.50;5112869;28;20370;-57
2022/09/03 12:05:27;;;;;;;;;;;;;;;37.89;19.49;100913.41;5113243;28;19970;-57
2022/09/03 12:08:04;;;;;;;;;;;;;;;38.25;19.69;100905.06;5112786;28;19951;-57
2022/09/03 12:10:49;;;;;;;;;;;;;;;38.62;20.25;100901.91;5113007;28;19966;-57
2022/09/03 12:13:22;;;;;;;;;;;;;;;39.36;18.58;100907.72;5110931;28;19916;-58
2022/09/03 12:16:04;;;;;;;;;;;;;;;39.55;18.79;100905.94;5113106;28;19950;-58
2022/09/03 12:18:31;;;;;;;;;;;;;;;39.58;18.71;100901.75;5112662;28;19912;-57
2022/09/03 12:20:58;;;;;;;;;;;;;;;39.60;17.99;100907.88;5112939;28;19915;-57
2022/09/03 12:23:43;;;;;;;;;;;;;;;39.62;16.93;100911.19;5112732;28;20339;-57
2022/09/03 12:26:23;;;;;;;;;;;;;;;39.73;17.29;100901.63;5112906;28;20332;-58
2022/09/03 12:28:50;;;;;;;;;;;;;;;40.36;15.82;100898.88;5112123;28;19903;-58
2022/09/03 12:31:21;;;;;;;;;;;;;;;40.68;18.04;100888.19;5112910;28;19990;-58
2022/09/03 12:33:47;;;;;;;;;;;;;;;41.33;17.02;100894.03;5112822;28;19912;-58
2022/09/03 12:36:12;;;;;;;;;;;;;;;41.79;15.56;100895.28;5112593;28;19915;-58
2022/09/03 12:38:38;;;;;;;;;;;;;;;42.02;16.19;100899.09;5112647;28;19912;-58
2022/09/03 12:41:03;;;;;;;;;;;;;;;42.23;16.28;100897.56;5111319;28;19922;-58
2022/09/03 12:43:29;;;;;;;;;;;;;;;42.71;16.03;100890.78;5111877;28;20327;-58
2022/09/03 12:45:54;;;;;;;;;;;;;;;43.07;15.45;100891.69;5112588;28;20406;-58
2022/09/03 12:48:20;;;;;;;;;;;;;;;42.52;14.72;100888.94;5112439;28;19908;-58